Terminal Aerodrome Forecast
Issued by NWS Omaha/Valley, NE

Home | Current Version | Previous Version | Text Only | Print | Product List | Glossary On
Versions: 1 2 3 4 5 6 7 8 9 10 11 12 13 14 15 16 17 18 19 20 21 22 23 24 25 26 27 28 29 30 31 32 33 34 35 36 37 38 39 40 41 42 43 44 45 46
000
FTUS43 KOAX 181120
TAFOMA
TAF
KOMA 181120Z 1812/1912 13005KT 4SM BR OVC006
      TEMPO 1812/1815 1SM BR OVC003
     FM181500 14009KT 5SM HZ SCT007 BKN015
     FM181700 15013KT P6SM SCT025 SCT100
     FM190000 14010KT P6SM SCT040 BKN100=

USA.gov is the U.S. government's official web portal to all federal, state and local government web resources and services.